Time;durP1;ratioP1;P1;durP2;ratioP2;P2;SDS_P1;SDS_P2;PMS_P1;PMS_P2;Temp;Humidity;BMP_temperature;BMP_pressure;BME280_temperature;BME280_humidity;BME280_pressure;Samples;Min_cycle;Max_cycle;Signal;HPM_P1;HPM_P2
2023/05/08 00:01:30;;;;;;;13.13;12.13;;;;;;;11.20;98.02;92974.03;5089396;28;20951;-74
2023/05/08 00:03:55;;;;;;;13.00;11.90;;;;;;;11.26;98.19;92982.59;5089987;28;20195;-73
2023/05/08 00:06:21;;;;;;;12.73;11.77;;;;;;;11.22;98.67;92990.19;5089741;28;20224;-73
2023/05/08 00:08:46;;;;;;;13.27;12.37;;;;;;;11.23;98.66;92985.75;5071851;28;20262;-73
2023/05/08 00:11:11;;;;;;;13.67;12.60;;;;;;;11.24;99.23;92995.16;5089400;28;20221;-74
2023/05/08 00:13:37;;;;;;;12.70;11.80;;;;;;;11.10;99.35;92992.38;5089546;28;20188;-73
2023/05/08 00:16:02;;;;;;;13.87;12.90;;;;;;;11.10;99.42;92994.97;5089622;28;20273;-74
2023/05/08 00:18:28;;;;;;;13.60;12.60;;;;;;;11.23;99.22;92997.00;5090924;28;20189;-73
2023/05/08 00:20:53;;;;;;;13.40;12.40;;;;;;;11.19;99.36;93008.28;5096177;28;20220;-73
2023/05/08 00:23:20;;;;;;;13.80;12.73;;;;;;;11.32;98.92;93003.19;5089820;28;20240;-73
2023/05/08 00:25:46;;;;;;;13.43;12.23;;;;;;;11.35;98.74;93004.47;5089764;28;20251;-73
2023/05/08 00:28:12;;;;;;;12.53;11.63;;;;;;;11.28;99.05;93001.41;5071701;28;20249;-73
2023/05/08 00:30:37;;;;;;;13.30;12.40;;;;;;;11.25;99.35;93012.41;5071407;28;20234;-73
2023/05/08 00:33:03;;;;;;;14.63;13.30;;;;;;;11.29;98.88;93008.97;5089519;28;20206;-73
2023/05/08 00:35:28;;;;;;;13.90;12.67;;;;;;;11.25;99.12;93007.94;5088641;28;20274;-73
2023/05/08 00:37:54;;;;;;;12.53;11.63;;;;;;;11.08;99.78;93004.91;5089372;28;20189;-74
2023/05/08 00:40:19;;;;;;;13.30;12.30;;;;;;;11.10;100.00;92997.59;5088804;28;20291;-73
2023/05/08 00:42:45;;;;;;;14.07;12.97;;;;;;;10.86;100.00;92999.31;5071848;28;20190;-73
2023/05/08 00:45:11;;;;;;;12.60;11.70;;;;;;;10.97;100.00;93000.81;5089171;28;20224;-74
2023/05/08 00:47:37;;;;;;;14.43;13.23;;;;;;;10.95;100.00;93000.31;5089681;28;20187;-74
2023/05/08 00:50:04;;;;;;;13.53;12.33;;;;;;;10.79;100.00;92991.00;5088778;28;20285;-73
2023/05/08 00:52:31;;;;;;;13.87;12.70;;;;;;;10.90;100.00;92999.56;5089276;28;20173;-74
2023/05/08 00:54:58;;;;;;;13.83;12.63;;;;;;;10.95;100.00;93002.94;5088851;28;20236;-73
2023/05/08 00:57:23;;;;;;;13.83;12.70;;;;;;;10.83;100.00;92999.09;5091271;28;20191;-73
2023/05/08 00:59:50;;;;;;;13.37;12.37;;;;;;;10.86;100.00;92993.31;5092824;28;20434;-73
2023/05/08 01:02:15;;;;;;;13.57;12.27;;;;;;;10.88;100.00;93005.06;5075141;28;20192;-73
2023/05/08 01:04:43;;;;;;;14.00;12.37;;;;;;;10.87;100.00;93006.09;5092133;28;20237;-74
2023/05/08 01:07:10;;;;;;;13.50;12.50;;;;;;;10.71;100.00;93001.22;5093278;28;20250;-73
2023/05/08 01:09:35;;;;;;;13.93;12.93;;;;;;;10.82;100.00;93013.19;5092268;28;20181;-74
2023/05/08 01:12:07;;;;;;;12.40;11.53;;;;;;;10.78;100.00;93010.34;5075253;28;20180;-73
2023/05/08 01:15:05;;;;;;;13.83;12.30;;;;;;;10.88;100.00;93010.28;5092162;28;20227;-74
2023/05/08 01:17:34;;;;;;;14.67;13.47;;;;;;;10.86;100.00;93020.19;5086915;28;20248;-74
2023/05/08 01:20:33;;;;;;;15.07;13.87;;;;;;;10.92;100.00;93019.16;5092508;28;20288;-73
2023/05/08 01:23:48;;;;;;;13.50;12.43;;;;;;;10.83;100.00;93014.75;5074875;28;20250;-73
2023/05/08 01:26:46;;;;;;;12.33;11.33;;;;;;;10.75;100.00;93007.47;5075326;28;20233;-74
2023/05/08 01:29:36;;;;;;;13.03;12.07;;;;;;;10.74;100.00;93014.53;5092487;28;20182;-74
2023/05/08 01:32:31;;;;;;;15.00;13.73;;;;;;;10.64;100.00;92998.94;5092491;28;20201;-74
2023/05/08 01:35:25;;;;;;;13.50;12.50;;;;;;;10.56;100.00;92989.03;5083566;28;20292;-73
2023/05/08 01:37:58;;;;;;;13.77;12.63;;;;;;;10.65;100.00;93005.69;5091855;28;20253;-73
2023/05/08 01:40:34;;;;;;;13.60;12.50;;;;;;;10.64;100.00;93001.53;5091854;28;20228;-74
2023/05/08 01:43:12;;;;;;;13.43;12.53;;;;;;;10.69;100.00;93004.09;5091733;28;20188;-72
2023/05/08 01:45:39;;;;;;;14.63;13.53;;;;;;;10.55;100.00;93002.38;5091194;28;20244;-72
2023/05/08 01:48:09;;;;;;;13.53;12.47;;;;;;;10.59;100.00;92998.16;5092605;28;20251;-73
2023/05/08 01:50:39;;;;;;;14.53;13.30;;;;;;;10.38;100.00;92981.78;5087320;28;20288;-72
2023/05/08 01:53:15;;;;;;;13.03;12.07;;;;;;;10.62;100.00;92990.56;5092106;28;20189;-72
2023/05/08 01:55:43;;;;;;;12.57;11.60;;;;;;;10.54;100.00;92990.34;5073497;28;20235;-73
2023/05/08 01:58:10;;;;;;;14.37;13.17;;;;;;;10.40;100.00;92992.75;5074629;28;20177;-73
2023/05/08 02:00:39;;;;;;;14.23;13.03;;;;;;;10.45;100.00;92997.97;5091216;28;20213;-72
2023/05/08 02:03:06;;;;;;;13.73;12.73;;;;;;;10.19;100.00;92946.13;5074312;28;20177;-73
2023/05/08 02:05:35;;;;;;;14.03;12.90;;;;;;;10.46;100.00;92980.47;5091279;28;20239;-72
2023/05/08 02:08:02;;;;;;;14.33;13.23;;;;;;;10.43;100.00;93000.06;5090972;28;20248;-73
2023/05/08 02:10:29;;;;;;;13.57;12.37;;;;;;;10.32;100.00;92998.53;5073198;28;20311;-73
2023/05/08 02:12:55;;;;;;;12.23;11.33;;;;;;;10.37;100.00;93000.34;5094734;28;20270;-72
2023/05/08 02:15:22;;;;;;;14.43;13.17;;;;;;;10.40;100.00;93005.81;5091077;28;20239;-73
2023/05/08 02:17:50;;;;;;;14.03;12.73;;;;;;;10.43;100.00;92994.84;5075629;28;20202;-73
2023/05/08 02:20:17;;;;;;;14.53;13.03;;;;;;;10.51;100.00;92996.09;5091040;28;20229;-72
2023/05/08 02:22:47;;;;;;;14.00;13.07;;;;;;;10.51;100.00;93002.09;5091090;28;20180;-72
2023/05/08 02:25:15;;;;;;;12.47;11.57;;;;;;;10.45;100.00;93003.19;5078812;28;20225;-73
2023/05/08 02:27:48;;;;;;;13.73;12.73;;;;;;;10.11;100.00;92960.53;5073750;28;20196;-73
2023/05/08 02:30:16;;;;;;;13.30;12.03;;;;;;;10.39;100.00;93001.66;5080375;28;20228;-73
2023/05/08 02:32:47;;;;;;;13.93;12.70;;;;;;;10.43;100.00;93001.91;5089701;28;20213;-73
2023/05/08 02:35:17;;;;;;;14.47;13.27;;;;;;;10.29;100.00;92993.84;5081140;28;20236;-73
2023/05/08 02:37:45;;;;;;;14.67;13.40;;;;;;;10.31;100.00;92996.19;5090679;28;20244;-73
2023/05/08 02:40:12;;;;;;;15.00;13.73;;;;;;;10.42;100.00;93005.53;5072669;28;20236;-73
2023/05/08 02:42:38;;;;;;;13.63;12.63;;;;;;;10.43;100.00;93005.28;5090802;28;20171;-73
2023/05/08 02:45:04;;;;;;;13.40;12.33;;;;;;;10.37;100.00;93006.34;5090761;28;20267;-75
2023/05/08 02:48:04;;;;;;;15.83;14.47;;;;;;;10.36;100.00;92989.13;5090951;28;20203;-74
2023/05/08 02:50:54;;;;;;;13.20;12.10;;;;;;;10.41;100.00;93006.59;5087777;28;20246;-73
2023/05/08 02:53:35;;;;;;;14.03;12.77;;;;;;;10.44;100.00;93003.44;5091057;28;20181;-73
2023/05/08 02:56:20;;;;;;;15.00;13.63;;;;;;;10.50;100.00;93005.00;5102821;28;20322;-73
2023/05/08 02:58:56;;;;;;;14.73;13.53;;;;;;;10.46;100.00;93002.13;5090659;28;20185;-73
2023/05/08 03:01:30;;;;;;;15.17;13.97;;;;;;;10.39;100.00;93008.69;5090445;28;20224;-73
2023/05/08 03:04:05;;;;;;;15.53;14.03;;;;;;;10.39;100.00;93011.28;5090656;28;20217;-73
2023/05/08 03:06:36;;;;;;;13.97;12.83;;;;;;;10.35;100.00;93003.22;5090182;28;20240;-73
2023/05/08 03:09:04;;;;;;;14.23;13.23;;;;;;;10.50;100.00;93005.00;5090369;28;20184;-73
2023/05/08 03:11:39;;;;;;;13.87;12.83;;;;;;;10.33;100.00;92994.88;5090279;28;20220;-73
2023/05/08 03:14:09;;;;;;;13.13;12.07;;;;;;;10.40;100.00;92997.97;5090251;28;20208;-73
2023/05/08 03:16:37;;;;;;;14.13;12.97;;;;;;;10.60;100.00;93004.97;5101067;28;20209;-72
2023/05/08 03:19:09;;;;;;;13.67;12.63;;;;;;;10.69;100.00;93004.09;5091291;28;20195;-73
2023/05/08 03:21:36;;;;;;;14.90;13.57;;;;;;;10.82;100.00;93019.19;5089424;28;20213;-73
2023/05/08 03:24:04;;;;;;;13.37;12.27;;;;;;;10.91;100.00;93017.56;5072745;28;20256;-73
2023/05/08 03:26:29;;;;;;;13.47;12.53;;;;;;;10.99;100.00;93017.00;5089440;28;20248;-73
2023/05/08 03:28:56;;;;;;;13.47;12.47;;;;;;;11.05;100.00;93007.31;5090406;28;20180;-73
2023/05/08 03:31:23;;;;;;;14.87;12.70;;;;;;;11.10;100.00;93010.66;5071876;28;20276;-73
2023/05/08 03:33:53;;;;;;;13.87;12.87;;;;;;;11.07;100.00;93026.88;5090383;28;20180;-73
2023/05/08 03:36:20;;;;;;;13.17;12.17;;;;;;;11.11;100.00;93017.44;5071957;28;20242;-72
2023/05/08 03:38:46;;;;;;;12.57;11.77;;;;;;;11.32;100.00;93028.53;5102038;28;20608;-73
2023/05/08 03:41:12;;;;;;;12.77;11.80;;;;;;;11.36;100.00;93014.66;5090530;28;20251;-73
2023/05/08 03:43:38;;;;;;;13.30;12.10;;;;;;;11.47;99.79;93001.53;5090065;28;20193;-73
2023/05/08 03:46:05;;;;;;;12.87;11.97;;;;;;;11.49;99.02;93008.03;5089418;28;20224;-73
2023/05/08 03:48:35;;;;;;;13.57;12.53;;;;;;;11.76;98.12;93012.81;5081710;28;20183;-73
2023/05/08 03:51:02;;;;;;;13.10;12.20;;;;;;;11.84;98.15;93023.47;5089127;28;20231;-73
2023/05/08 03:53:29;;;;;;;11.67;10.87;;;;;;;11.93;97.88;93023.63;5089642;28;20177;-73
2023/05/08 03:55:57;;;;;;;13.20;12.40;;;;;;;11.98;97.02;93010.50;5089054;28;20232;-73
2023/05/08 03:58:33;;;;;;;13.27;12.40;;;;;;;12.32;95.29;93021.66;5090194;28;20195;-70
2023/05/08 04:01:11;;;;;;;12.83;11.93;;;;;;;12.52;94.08;93032.69;5089770;28;20225;-71
2023/05/08 04:03:39;;;;;;;13.03;12.07;;;;;;;12.68;92.12;93038.53;5091934;28;20184;-70
2023/05/08 04:06:26;;;;;;;12.30;11.40;;;;;;;12.71;91.51;93038.78;5072343;28;20228;-70
2023/05/08 04:09:12;;;;;;;12.70;11.77;;;;;;;12.62;92.31;93037.03;5089681;28;20185;-69
2023/05/08 04:11:51;;;;;;;13.03;12.03;;;;;;;12.48;91.74;93023.81;5071511;28;20216;-70
2023/05/08 04:14:20;;;;;;;13.80;12.80;;;;;;;12.76;91.01;93043.16;5079892;28;20208;-71
2023/05/08 04:16:52;;;;;;;12.93;12.03;;;;;;;12.74;90.54;93037.41;5089278;28;20211;-70
2023/05/08 04:19:26;;;;;;;12.80;11.67;;;;;;;12.88;90.11;93041.69;5089695;28;20180;-70
2023/05/08 04:21:56;;;;;;;14.27;13.27;;;;;;;12.97;89.10;93044.47;5089721;28;20192;-70
2023/05/08 04:24:23;;;;;;;13.47;12.17;;;;;;;13.00;88.72;93046.53;5089398;28;20215;-70
2023/05/08 04:26:50;;;;;;;12.40;11.57;;;;;;;13.06;88.97;93037.53;5069358;28;20181;-70
2023/05/08 04:29:16;;;;;;;12.83;11.93;;;;;;;13.24;87.04;93054.34;5089694;28;20181;-70
2023/05/08 04:31:43;;;;;;;14.10;13.07;;;;;;;13.21;87.17;93049.69;5089729;28;21194;-71
2023/05/08 04:34:08;;;;;;;13.97;12.43;;;;;;;13.42;86.08;93051.72;5093567;28;20224;-71
2023/05/08 04:36:34;;;;;;;14.10;12.63;;;;;;;13.50;85.84;93060.78;5092845;28;20271;-69
2023/05/08 04:38:59;;;;;;;12.77;11.60;;;;;;;13.68;85.28;93062.63;5075977;28;20200;-70
2023/05/08 04:41:25;;;;;;;13.30;12.37;;;;;;;13.77;84.51;93043.34;5092220;28;20228;-72
2023/05/08 04:43:52;;;;;;;15.00;13.67;;;;;;;13.66;84.48;93052.44;5091668;28;20275;-72
2023/05/08 04:46:18;;;;;;;13.27;11.90;;;;;;;14.21;83.07;93042.88;5091655;28;20236;-72
2023/05/08 04:48:43;;;;;;;13.37;12.47;;;;;;;14.42;81.38;93036.19;5092293;28;20203;-72
2023/05/08 04:51:08;;;;;;;13.60;12.63;;;;;;;14.71;81.31;93043.81;5091720;28;20220;-73
2023/05/08 04:53:34;;;;;;;13.30;12.30;;;;;;;15.00;79.94;93044.25;5091126;28;20195;-72
2023/05/08 04:55:59;;;;;;;12.47;11.33;;;;;;;15.23;78.31;93045.88;5091598;28;20228;-73
2023/05/08 04:58:25;;;;;;;12.57;11.77;;;;;;;15.13;79.10;93046.09;5091627;28;20200;-73
2023/05/08 05:00:50;;;;;;;13.20;11.73;;;;;;;15.35;78.48;93039.03;5091364;28;20640;-73
2023/05/08 05:03:15;;;;;;;12.53;11.53;;;;;;;15.36;75.99;93022.16;5091780;28;20951;-73
2023/05/08 05:05:41;;;;;;;13.20;12.30;;;;;;;14.99;78.02;93038.22;5090797;28;20220;-72
2023/05/08 05:08:06;;;;;;;13.67;12.60;;;;;;;15.42;75.68;93030.75;5091441;28;20251;-73
2023/05/08 05:10:32;;;;;;;12.97;12.07;;;;;;;16.13;73.37;93040.38;5091280;28;20749;-73
2023/05/08 05:12:57;;;;;;;13.83;12.47;;;;;;;15.83;73.93;93040.03;5091373;28;20248;-73
2023/05/08 05:15:22;;;;;;;12.87;11.90;;;;;;;15.88;74.70;93047.84;5090963;28;20231;-72
2023/05/08 05:17:48;;;;;;;12.00;11.10;;;;;;;17.21;68.33;93047.50;5095341;28;20188;-73
2023/05/08 05:20:13;;;;;;;13.17;11.87;;;;;;;17.03;68.83;93038.78;5090931;28;20216;-72
2023/05/08 05:22:39;;;;;;;12.10;11.10;;;;;;;16.71;70.97;93041.78;5074591;28;20191;-72
2023/05/08 05:25:05;;;;;;;11.97;11.07;;;;;;;17.81;66.73;93047.56;5091867;28;20232;-74
2023/05/08 05:27:34;;;;;;;12.53;11.33;;;;;;;17.50;67.05;93040.59;5092406;28;20177;-72
2023/05/08 05:29:59;;;;;;;11.77;10.87;;;;;;;17.02;69.79;93039.88;5091631;28;20224;-72
2023/05/08 05:32:25;;;;;;;12.40;11.40;;;;;;;17.32;67.67;93031.06;5091299;28;20290;-71
2023/05/08 05:34:51;;;;;;;12.33;11.43;;;;;;;18.19;64.39;93030.75;5091472;28;20256;-70
2023/05/08 05:37:16;;;;;;;13.80;12.70;;;;;;;19.25;60.48;93043.75;5092755;28;20180;-69
2023/05/08 05:39:42;;;;;;;11.90;10.90;;;;;;;20.85;55.95;93043.75;5091466;28;20273;-70
2023/05/08 05:42:07;;;;;;;10.40;9.63;;;;;;;23.13;46.67;93053.72;5092167;28;20199;-69
2023/05/08 05:44:33;;;;;;;13.10;11.77;;;;;;;23.52;46.27;93050.09;5072263;28;20247;-68
2023/05/08 05:46:58;;;;;;;11.65;10.65;;;;;;;24.57;43.93;93050.72;5090501;28;20194;-70
2023/05/08 05:49:23;;;;;;;12.18;11.07;;;;;;;25.68;40.99;93059.13;5090901;28;20182;-70
2023/05/08 05:51:49;;;;;;;11.50;10.68;;;;;;;27.16;36.86;93063.56;5088670;28;20188;-70
2023/05/08 05:54:14;;;;;;;12.07;11.00;;;;;;;27.08;35.88;93059.28;5090190;28;20237;-69
2023/05/08 05:56:40;;;;;;;11.85;10.73;;;;;;;27.19;35.26;93057.47;5089739;28;20224;-70
2023/05/08 05:59:05;;;;;;;13.35;10.45;;;;;;;27.85;34.14;93065.25;5090428;28;20201;-68
2023/05/08 06:01:31;;;;;;;12.02;10.93;;;;;;;26.17;37.80;93056.34;5090337;28;20234;-68
2023/05/08 06:03:56;;;;;;;12.00;10.90;;;;;;;28.66;33.14;93058.41;5090628;28;20196;-69
2023/05/08 06:06:21;;;;;;;11.45;10.35;;;;;;;29.81;31.35;93062.38;5090240;28;20223;-68
2023/05/08 06:08:47;;;;;;;12.30;11.20;;;;;;;29.88;31.18;93051.63;5090831;28;20195;-70
2023/05/08 06:11:13;;;;;;;11.25;10.27;;;;;;;29.70;30.40;93057.03;5076910;28;20292;-68
2023/05/08 06:13:40;;;;;;;11.13;10.23;;;;;;;28.40;32.21;93050.63;5090436;28;20193;-68
2023/05/08 06:16:06;;;;;;;11.90;10.88;;;;;;;28.26;32.76;93050.56;5089906;28;20272;-69
2023/05/08 06:18:32;;;;;;;12.65;11.32;;;;;;;29.80;30.44;93050.09;5090679;28;20185;-69
2023/05/08 06:20:58;;;;;;;12.13;9.68;;;;;;;31.11;28.45;93056.56;5089874;28;20224;-70
2023/05/08 06:23:24;;;;;;;10.65;9.73;;;;;;;28.80;31.51;93039.63;5090353;28;20181;-68
2023/05/08 06:25:50;;;;;;;12.07;10.93;;;;;;;26.85;34.14;93043.34;5089519;28;20284;-69
2023/05/08 06:28:15;;;;;;;11.52;10.32;;;;;;;23.28;42.12;93033.53;5089600;28;20204;-69
2023/05/08 06:30:41;;;;;;;12.55;10.43;;;;;;;21.91;46.25;93033.41;5089528;28;20244;-69
2023/05/08 06:33:08;;;;;;;12.10;11.18;;;;;;;19.93;53.41;93024.72;5089956;28;20192;-69
2023/05/08 06:35:33;;;;;;;12.40;10.95;;;;;;;20.69;51.81;93027.69;5088708;28;20223;-70
2023/05/08 06:37:58;;;;;;;11.90;10.93;;;;;;;20.60;51.58;93025.16;5089636;28;20221;-69
2023/05/08 06:40:24;;;;;;;12.60;11.55;;;;;;;18.18;59.78;93018.63;5089474;28;20311;-67
2023/05/08 06:42:49;;;;;;;12.02;11.02;;;;;;;18.55;58.72;93031.13;5089255;28;20200;-68
2023/05/08 06:45:14;;;;;;;12.05;10.98;;;;;;;19.24;56.75;93022.88;5089421;28;20224;-70
2023/05/08 06:47:40;;;;;;;12.60;11.50;;;;;;;18.88;59.64;93026.00;5088257;28;20191;-68
2023/05/08 06:50:06;;;;;;;13.63;12.40;;;;;;;19.05;59.82;93023.31;5089666;28;20236;-68
2023/05/08 06:52:31;;;;;;;12.30;11.30;;;;;;;18.65;60.16;93030.00;5089515;28;20192;-68
2023/05/08 06:54:57;;;;;;;12.20;11.00;;;;;;;19.22;57.23;93022.41;5080976;28;20250;-68
2023/05/08 06:57:25;;;;;;;13.27;11.43;;;;;;;19.38;57.38;93029.50;5072375;28;20255;-67
2023/05/08 06:59:50;;;;;;;13.23;12.03;;;;;;;19.58;57.30;93026.06;5089351;28;20985;-68
2023/05/08 07:02:15;;;;;;;12.20;11.20;;;;;;;19.41;56.01;93023.56;5089500;28;20204;-67
2023/05/08 07:04:42;;;;;;;12.30;11.30;;;;;;;17.99;60.76;93027.97;5088797;28;20732;-67
2023/05/08 07:07:08;;;;;;;12.80;11.70;;;;;;;18.31;60.10;93035.38;5088954;28;20193;-68
2023/05/08 07:09:33;;;;;;;12.93;11.83;;;;;;;18.65;59.45;93030.78;5088800;28;20219;-67
2023/05/08 07:11:59;;;;;;;14.13;12.87;;;;;;;19.14;57.43;93034.63;5088808;28;21092;-67
2023/05/08 07:14:24;;;;;;;12.60;11.47;;;;;;;18.33;59.84;93033.19;5089050;28;21066;-66
2023/05/08 07:16:49;;;;;;;13.30;11.93;;;;;;;18.31;59.80;93035.38;5088607;28;20194;-66
2023/05/08 07:19:15;;;;;;;12.87;11.97;;;;;;;18.92;57.39;93045.47;5089032;28;20215;-65
2023/05/08 07:21:40;;;;;;;13.23;12.07;;;;;;;19.64;55.29;93046.00;5088211;28;20257;-65
2023/05/08 07:24:06;;;;;;;12.40;11.20;;;;;;;18.22;58.35;93038.06;5089521;28;20193;-68
2023/05/08 07:26:31;;;;;;;12.77;11.57;;;;;;;19.29;56.82;93036.72;5088373;28;20230;-69
2023/05/08 07:28:57;;;;;;;12.07;11.07;;;;;;;19.02;58.30;93035.28;5088931;28;20186;-68
2023/05/08 07:31:22;;;;;;;12.77;11.53;;;;;;;19.00;57.80;93034.06;5088072;28;20225;-69
2023/05/08 07:33:47;;;;;;;12.33;11.43;;;;;;;19.84;56.99;93029.31;5089109;28;20191;-68
2023/05/08 07:36:13;;;;;;;12.07;11.17;;;;;;;19.49;55.21;93045.78;5088372;28;20226;-69
2023/05/08 07:38:38;;;;;;;11.40;10.60;;;;;;;19.56;54.85;93041.53;5088564;28;20247;-67
2023/05/08 07:41:04;;;;;;;12.07;10.87;;;;;;;20.50;51.43;93046.78;5088324;28;20218;-68
2023/05/08 07:43:30;;;;;;;12.40;11.50;;;;;;;20.73;50.32;93049.84;5088804;28;20202;-67
2023/05/08 07:45:56;;;;;;;11.83;10.80;;;;;;;20.09;55.44;93043.44;5088385;28;20227;-67
2023/05/08 07:48:21;;;;;;;13.43;12.47;;;;;;;19.56;53.70;93038.88;5088136;28;20202;-67
2023/05/08 07:50:49;;;;;;;14.60;13.23;;;;;;;19.28;54.48;93037.03;5088258;28;20211;-66
2023/05/08 07:53:14;;;;;;;11.80;10.73;;;;;;;19.26;58.18;93045.28;5088990;28;20180;-67
2023/05/08 07:55:39;;;;;;;11.97;10.90;;;;;;;19.81;55.09;93045.88;5087479;28;20260;-67
2023/05/08 07:58:05;;;;;;;12.97;11.70;;;;;;;19.65;55.81;93047.53;5088916;28;20191;-67
2023/05/08 08:00:31;;;;;;;13.97;12.50;;;;;;;18.63;58.13;93048.84;5087966;28;20223;-68
2023/05/08 08:02:56;;;;;;;14.85;13.55;;;;;;;18.58;58.22;93051.69;5087486;28;20429;-67
2023/05/08 08:05:22;;;;;;;14.13;13.03;;;;;;;18.79;59.41;93057.81;5087781;28;20231;-67
2023/05/08 08:07:47;;;;;;;13.00;12.07;;;;;;;19.02;59.14;93056.47;5090962;28;20187;-69
2023/05/08 08:10:13;;;;;;;14.13;12.83;;;;;;;19.72;56.14;93058.38;5092217;28;20240;-69
2023/05/08 08:12:38;;;;;;;14.30;13.00;;;;;;;19.27;59.16;93060.06;5092870;28;20179;-68
2023/05/08 08:15:04;;;;;;;16.17;14.67;;;;;;;18.76;57.80;93057.66;5092342;28;20238;-70
2023/05/08 08:17:29;;;;;;;16.37;14.70;;;;;;;19.62;55.98;93061.44;5085239;28;20185;-68
2023/05/08 08:19:55;;;;;;;15.37;14.07;;;;;;;18.97;57.43;93051.34;5091731;28;20210;-69
2023/05/08 08:22:21;;;;;;;18.33;16.43;;;;;;;19.35;57.04;93056.63;5090481;28;20209;-69
2023/05/08 08:24:46;;;;;;;18.50;13.20;;;;;;;19.49;57.80;93054.50;5088020;28;20230;-67
2023/05/08 08:27:12;;;;;;;15.00;13.40;;;;;;;18.98;57.49;93054.78;5092175;28;20230;-67
2023/05/08 08:29:37;;;;;;;13.43;12.17;;;;;;;19.49;56.96;93054.50;5090621;28;20243;-69
2023/05/08 08:32:03;;;;;;;13.27;12.20;;;;;;;19.94;54.89;93059.94;5090224;28;20184;-67
2023/05/08 08:34:28;;;;;;;14.87;13.50;;;;;;;19.66;54.75;93046.44;5090823;28;20226;-68
2023/05/08 08:36:54;;;;;;;12.73;11.63;;;;;;;19.36;56.75;93039.66;5091676;28;20197;-67
2023/05/08 08:39:20;;;;;;;12.90;11.90;;;;;;;19.65;55.20;93041.47;5103070;28;20257;-67
2023/05/08 08:41:45;;;;;;;10.97;10.20;;;;;;;20.02;55.03;93048.47;5071768;28;20209;-68
2023/05/08 08:44:11;;;;;;;13.53;12.33;;;;;;;19.46;55.91;93026.03;5072220;28;20190;-66
2023/05/08 08:46:42;;;;;;;14.02;10.93;;;;;;;20.22;55.37;93045.03;5070513;28;20239;-67
2023/05/08 08:49:11;;;;;;;10.98;10.07;;;;;;;19.68;55.14;93036.28;5071132;28;20184;-66
2023/05/08 08:51:49;;;;;;;11.57;10.67;;;;;;;19.51;56.49;93040.94;5077919;28;20220;-66
2023/05/08 08:54:20;;;;;;;15.10;10.97;;;;;;;19.22;57.22;93038.31;5071766;28;20192;-67
2023/05/08 08:56:48;;;;;;;11.70;10.83;;;;;;;19.92;54.79;93038.28;5071357;28;20218;-67
2023/05/08 08:59:15;;;;;;;12.33;10.87;;;;;;;19.83;54.95;93035.69;5071377;28;20177;-66
2023/05/08 09:01:43;;;;;;;12.10;11.20;;;;;;;19.60;56.81;93029.19;5087253;28;20232;-67
2023/05/08 09:04:09;;;;;;;12.43;11.40;;;;;;;19.76;55.48;93032.81;5090781;28;20195;-67
2023/05/08 09:06:35;;;;;;;13.53;11.93;;;;;;;19.72;55.77;93026.59;5072031;28;21144;-68
2023/05/08 09:09:02;;;;;;;12.43;11.23;;;;;;;19.49;57.99;93012.13;5070750;28;20188;-67
2023/05/08 09:11:27;;;;;;;11.83;11.03;;;;;;;19.53;59.28;93014.91;5069521;28;20219;-67
2023/05/08 09:13:58;;;;;;;11.60;10.40;;;;;;;19.52;59.58;93010.72;5070846;28;20188;-67
2023/05/08 09:16:24;;;;;;;12.47;11.13;;;;;;;19.40;61.38;93002.69;5049509;28;20220;-67
2023/05/08 09:18:50;;;;;;;11.77;10.97;;;;;;;19.36;61.10;93007.88;5070091;28;20207;-67
2023/05/08 09:21:15;;;;;;;12.07;10.97;;;;;;;19.29;61.09;92998.88;5069217;28;20218;-69
2023/05/08 09:23:58;;;;;;;13.63;12.03;;;;;;;19.18;60.30;93001.88;5070846;28;20358;-69
2023/05/08 09:26:35;;;;;;;14.10;12.70;;;;;;;19.27;60.41;92998.41;5070785;28;20223;-70
2023/05/08 09:29:18;;;;;;;12.53;11.43;;;;;;;19.30;60.50;92998.56;5071620;28;20218;-69
2023/05/08 09:31:46;;;;;;;12.03;11.13;;;;;;;19.23;60.90;92979.75;5069555;28;20204;-68
2023/05/08 09:34:27;;;;;;;12.53;11.63;;;;;;;19.39;61.36;92979.97;5070505;28;20228;-70
2023/05/08 09:36:54;;;;;;;11.00;10.13;;;;;;;19.30;60.12;92973.97;5070807;28;20296;-68
2023/05/08 09:39:24;;;;;;;12.83;11.60;;;;;;;19.34;61.22;92980.94;5070560;28;20600;-70
2023/05/08 09:41:59;;;;;;;12.23;11.20;;;;;;;19.50;60.98;92975.84;5070708;28;20196;-69
2023/05/08 09:44:25;;;;;;;12.77;11.67;;;;;;;19.56;60.34;92979.84;5070604;28;20190;-69
2023/05/08 09:46:50;;;;;;;12.17;10.97;;;;;;;19.90;58.99;92990.91;5071017;28;20207;-69
2023/05/08 09:49:17;;;;;;;11.97;11.03;;;;;;;20.16;57.16;92994.13;5070520;28;20183;-67
2023/05/08 09:51:52;;;;;;;12.90;11.63;;;;;;;20.26;57.96;93004.31;5053087;28;20224;-68
2023/05/08 09:54:19;;;;;;;12.60;11.40;;;;;;;19.63;61.59;93017.16;5069557;28;20196;-67
2023/05/08 09:56:44;;;;;;;12.30;11.30;;;;;;;19.00;61.24;93007.59;5070553;28;20219;-67
2023/05/08 09:59:27;;;;;;;12.63;11.30;;;;;;;18.49;63.05;93007.84;5067116;28;20193;-67
2023/05/08 10:01:53;;;;;;;12.30;11.20;;;;;;;19.96;59.84;93007.38;5052610;28;20244;-68
2023/05/08 10:04:36;;;;;;;12.70;11.70;;;;;;;20.57;58.52;93009.91;5069928;28;20217;-69
2023/05/08 10:07:02;;;;;;;12.55;11.32;;;;;;;21.37;54.11;93004.84;5071146;28;20209;-67
2023/05/08 10:09:28;;;;;;;12.63;11.38;;;;;;;21.58;53.85;93000.13;5070980;28;20180;-68
2023/05/08 10:11:54;;;;;;;13.60;11.02;;;;;;;21.53;52.98;93003.00;5071533;28;20855;-71
2023/05/08 10:14:21;;;;;;;12.05;11.15;;;;;;;21.60;53.30;93009.34;5071217;28;20187;-71
2023/05/08 10:16:54;;;;;;;12.63;11.63;;;;;;;21.02;56.22;92999.22;5070972;28;20194;-70
2023/05/08 10:19:21;;;;;;;12.02;11.02;;;;;;;20.83;58.04;92982.25;5070214;28;20466;-73
2023/05/08 10:21:48;;;;;;;12.85;11.63;;;;;;;21.04;56.80;92988.28;5071220;28;20221;-71
2023/05/08 10:24:31;;;;;;;13.40;12.18;;;;;;;21.07;55.58;92985.72;5071566;28;20243;-73
2023/05/08 10:27:07;;;;;;;12.02;11.07;;;;;;;20.64;57.36;92978.28;5068994;28;20269;-73
2023/05/08 10:29:49;;;;;;;12.55;11.63;;;;;;;20.82;58.53;92978.06;5048967;28;20811;-73
2023/05/08 10:32:18;;;;;;;11.93;10.98;;;;;;;21.35;55.06;92975.94;5052814;28;20192;-72
2023/05/08 10:34:48;;;;;;;12.95;11.77;;;;;;;21.48;54.99;92979.34;5069162;28;20236;-72
2023/05/08 10:37:14;;;;;;;12.13;11.13;;;;;;;21.05;56.17;92969.34;5052302;28;20180;-72
2023/05/08 10:39:43;;;;;;;13.00;11.82;;;;;;;20.67;58.69;92967.00;5069229;28;20234;-71
2023/05/08 10:42:08;;;;;;;14.05;12.85;;;;;;;21.04;57.63;92969.69;5070066;28;20186;-70
2023/05/08 10:44:34;;;;;;;12.43;11.52;;;;;;;21.17;57.98;92973.88;5069374;28;20196;-71
2023/05/08 10:47:24;;;;;;;12.20;11.30;;;;;;;21.23;56.87;92972.53;5069799;28;20202;-69
2023/05/08 10:50:16;;;;;;;11.25;10.52;;;;;;;21.58;54.64;92974.34;5059527;28;20236;-71
2023/05/08 10:52:49;;;;;;;13.73;12.60;;;;;;;21.59;56.70;92965.25;5057152;28;20183;-70
2023/05/08 10:55:31;;;;;;;12.52;11.43;;;;;;;21.61;56.56;92962.25;5067934;28;20260;-70
2023/05/08 10:58:14;;;;;;;12.07;10.98;;;;;;;20.25;57.88;92962.22;5069709;28;20201;-73
2023/05/08 11:01:08;;;;;;;13.18;11.98;;;;;;;21.22;56.41;92958.47;5069019;28;20240;-73
2023/05/08 11:03:49;;;;;;;11.75;10.75;;;;;;;20.97;57.44;92950.88;5068701;28;20220;-70
2023/05/08 11:06:15;;;;;;;12.52;11.43;;;;;;;21.05;59.56;92949.97;5070531;28;20245;-70
2023/05/08 11:08:51;;;;;;;11.68;10.77;;;;;;;21.94;54.42;92958.28;5070692;28;20195;-70
2023/05/08 11:11:32;;;;;;;12.65;11.48;;;;;;;21.51;54.85;92944.88;5088232;28;20222;-70
2023/05/08 11:14:08;;;;;;;10.40;9.50;;;;;;;21.58;55.92;92941.66;5090869;28;21113;-69
2023/05/08 11:16:52;;;;;;;12.02;11.00;;;;;;;21.25;56.42;92949.06;5089188;28;20222;-66
2023/05/08 11:19:21;;;;;;;10.93;10.02;;;;;;;20.69;58.62;92935.59;5090043;28;20228;-68
2023/05/08 11:22:14;;;;;;;12.15;11.05;;;;;;;20.62;58.83;92932.72;5082447;28;20202;-67
2023/05/08 11:24:47;;;;;;;12.52;11.32;;;;;;;20.83;56.18;92927.31;5087291;28;20238;-71